Time;durP1;ratioP1;P1;durP2;ratioP2;P2;SDS_P1;SDS_P2;PMS_P1;PMS_P2;Temp;Humidity;BMP_temperature;BMP_pressure;BME280_temperature;BME280_humidity;BME280_pressure;Samples;Min_cycle;Max_cycle;Signal;HPM_P1;HPM_P2
2021/08/14 00:00:50;;;;;;;10.63;7.20;;;26.70;94.90;;;;;;5083617;28;20024;-53
2021/08/14 00:03:17;;;;;;;10.43;6.07;;;26.80;95.00;;;;;;5083860;28;20024;-59
2021/08/14 00:05:44;;;;;;;13.25;5.03;;;26.80;95.00;;;;;;5083716;28;20062;-59
2021/08/14 00:08:10;;;;;;;9.60;4.40;;;26.70;95.00;;;;;;5083401;28;20055;-51
2021/08/14 00:10:37;;;;;;;5.45;3.67;;;26.70;95.00;;;;;;5083739;28;20048;-51
2021/08/14 00:13:04;;;;;;;5.72;3.75;;;26.70;95.00;;;;;;5086824;28;20042;-53
2021/08/14 00:15:30;;;;;;;6.35;3.15;;;26.70;94.90;;;;;;5087429;28;20028;-52
2021/08/14 00:17:57;;;;;;;9.40;3.13;;;26.70;94.80;;;;;;5087424;28;20083;-54
2021/08/14 00:20:24;;;;;;;4.45;3.00;;;26.70;94.90;;;;;;5087423;28;20343;-56
2021/08/14 00:22:50;;;;;;;12.10;7.85;;;26.70;94.90;;;;;;5087189;28;20055;-57
2021/08/14 00:25:17;;;;;;;5.05;3.95;;;26.60;94.90;;;;;;5087376;28;20032;-56
2021/08/14 00:27:43;;;;;;;5.55;4.13;;;26.70;94.90;;;;;;5087332;28;20262;-54
2021/08/14 00:30:10;;;;;;;6.13;5.10;;;26.60;95.00;;;;;;5087274;28;20024;-51
2021/08/14 00:32:37;;;;;;;11.07;5.10;;;26.60;95.00;;;;;;5087303;28;20142;-53
2021/08/14 00:35:04;;;;;;;10.05;5.63;;;26.60;95.00;;;;;;5087324;28;20040;-59
2021/08/14 00:37:31;;;;;;;8.85;6.55;;;26.60;95.10;;;;;;5086005;28;20239;-53
2021/08/14 00:39:57;;;;;;;14.50;8.27;;;26.60;95.10;;;;;;5087010;28;20028;-51
2021/08/14 00:42:24;;;;;;;12.65;8.23;;;26.60;95.20;;;;;;5087065;28;20309;-51
2021/08/14 00:44:51;;;;;;;17.60;13.43;;;26.60;95.10;;;;;;5087108;28;20032;-57
2021/08/14 00:47:22;;;;;;;21.15;17.33;;;26.60;95.10;;;;;;5086654;28;20039;-57
2021/08/14 00:49:49;;;;;;;18.48;12.57;;;26.60;95.10;;;;;;5086854;28;20017;-59
2021/08/14 00:52:16;;;;;;;12.88;10.60;;;26.60;95.10;;;;;;5086755;28;20024;-53
2021/08/14 00:54:42;;;;;;;17.10;9.80;;;26.50;95.10;;;;;;5086683;28;20248;-54
2021/08/14 00:57:09;;;;;;;13.15;9.40;;;26.50;95.20;;;;;;5086723;28;20032;-51
2021/08/14 00:59:36;;;;;;;13.13;8.45;;;26.50;95.10;;;;;;5087156;28;20021;-49
2021/08/14 01:02:04;;;;;;;14.30;8.20;;;26.50;95.10;;;;;;5086488;28;20301;-50
2021/08/14 01:04:31;;;;;;;11.98;6.32;;;26.50;95.10;;;;;;5085768;28;20029;-56
2021/08/14 01:06:59;;;;;;;11.68;5.25;;;26.50;95.00;;;;;;5086532;28;20024;-50
2021/08/14 01:09:29;;;;;;;6.65;4.30;;;26.40;95.00;;;;;;5087037;28;20025;-51
2021/08/14 01:11:58;;;;;;;8.00;3.60;;;26.40;95.00;;;;;;5086707;28;20016;-51
2021/08/14 01:14:25;;;;;;;4.82;3.20;;;26.40;95.00;;;;;;5086852;28;20184;-50
2021/08/14 01:16:52;;;;;;;6.35;3.25;;;26.40;94.90;;;;;;5086581;28;20039;-50
2021/08/14 01:19:20;;;;;;;7.78;3.08;;;26.40;95.00;;;;;;5086913;28;20024;-51
2021/08/14 01:21:51;;;;;;;4.13;2.90;;;26.40;95.00;;;;;;5086317;28;20024;-50
2021/08/14 01:24:19;;;;;;;4.82;2.92;;;26.30;94.90;;;;;;5084109;28;20039;-58
2021/08/14 01:26:46;;;;;;;5.15;2.75;;;26.30;94.90;;;;;;5086102;28;20049;-52
2021/08/14 01:29:13;;;;;;;5.00;2.85;;;26.30;95.10;;;;;;5086467;28;20029;-53
2021/08/14 01:31:41;;;;;;;9.68;3.33;;;26.30;94.90;;;;;;5086174;28;20009;-51
2021/08/14 01:34:08;;;;;;;6.90;3.00;;;26.30;94.90;;;;;;5086670;28;20035;-58
2021/08/14 01:36:34;;;;;;;5.85;2.33;;;26.30;94.90;;;;;;5086019;28;20035;-54
2021/08/14 01:39:04;;;;;;;6.78;2.38;;;26.30;94.90;;;;;;5086584;28;20036;-49
2021/08/14 01:41:31;;;;;;;8.68;1.92;;;26.30;94.90;;;;;;5085971;28;20235;-50
2021/08/14 01:44:02;;;;;;;6.80;2.05;;;26.20;94.80;;;;;;5086152;28;20028;-53
2021/08/14 01:46:37;;;;;;;5.45;2.20;;;26.30;94.90;;;;;;5085875;28;20017;-51
2021/08/14 01:49:04;;;;;;;13.27;2.45;;;26.30;94.90;;;;;;5086287;28;20033;-54
2021/08/14 01:51:31;;;;;;;5.95;2.60;;;26.20;94.90;;;;;;5084717;28;20028;-53
2021/08/14 01:54:00;;;;;;;7.60;2.42;;;26.30;95.00;;;;;;5086179;28;20025;-55
2021/08/14 01:56:28;;;;;;;12.07;3.15;;;26.30;95.00;;;;;;5085636;28;20020;-55
2021/08/14 01:58:55;;;;;;;12.85;2.80;;;26.30;95.10;;;;;;5086013;28;20036;-54
2021/08/14 02:01:22;;;;;;;11.20;2.65;;;26.20;95.10;;;;;;5085645;28;20083;-59
2021/08/14 02:03:49;;;;;;;11.48;2.28;;;26.20;95.10;;;;;;5085790;28;20032;-47
2021/08/14 02:06:17;;;;;;;11.73;2.75;;;26.10;95.10;;;;;;5085436;28;20087;-48
2021/08/14 02:08:44;;;;;;;11.18;2.35;;;26.20;95.20;;;;;;5085637;28;20024;-44
2021/08/14 02:11:17;;;;;;;13.82;2.92;;;26.20;95.20;;;;;;5085451;28;20016;-42
2021/08/14 02:13:46;;;;;;;8.07;3.70;;;26.20;95.20;;;;;;5084253;28;20025;-43
2021/08/14 02:16:13;;;;;;;12.05;6.10;;;26.20;95.20;;;;;;5085373;28;20021;-51
2021/08/14 02:18:40;;;;;;;14.07;8.75;;;26.10;95.20;;;;;;5085370;28;20127;-48
2021/08/14 02:21:08;;;;;;;8.05;4.95;;;26.10;95.20;;;;;;5085294;28;20016;-49
2021/08/14 02:23:36;;;;;;;11.35;4.93;;;26.10;95.10;;;;;;5084140;28;20032;-49
2021/08/14 02:26:03;;;;;;;7.90;4.05;;;26.10;95.10;;;;;;5084704;28;20020;-50
2021/08/14 02:28:30;;;;;;;8.80;4.05;;;26.10;95.10;;;;;;5085590;28;20312;-49
2021/08/14 02:30:58;;;;;;;7.05;3.40;;;26.10;95.10;;;;;;5084996;28;20380;-50
2021/08/14 02:33:25;;;;;;;7.65;3.10;;;26.10;95.10;;;;;;5085114;28;20051;-48
2021/08/14 02:35:52;;;;;;;6.15;3.22;;;26.10;95.20;;;;;;5084794;28;20012;-46
2021/08/14 02:38:18;;;;;;;4.25;2.50;;;26.00;95.10;;;;;;5084944;28;20028;-50
2021/08/14 02:40:48;;;;;;;6.15;3.20;;;26.00;95.20;;;;;;5084571;28;20024;-51
2021/08/14 02:43:16;;;;;;;10.48;3.53;;;26.00;95.20;;;;;;5085038;28;20052;-51
2021/08/14 02:45:43;;;;;;;17.90;3.42;;;26.00;95.10;;;;;;5084844;28;20028;-51
2021/08/14 02:48:11;;;;;;;13.18;3.38;;;26.00;95.20;;;;;;5084628;28;20024;-50
2021/08/14 02:50:42;;;;;;;10.27;3.00;;;26.00;95.10;;;;;;5084685;28;20231;-50
2021/08/14 02:53:08;;;;;;;11.52;2.00;;;26.00;95.10;;;;;;5084814;28;20028;-52
2021/08/14 02:55:35;;;;;;;8.75;2.10;;;26.00;95.10;;;;;;5084551;28;20107;-48
2021/08/14 02:58:02;;;;;;;8.93;1.85;;;25.90;95.00;;;;;;5084981;28;20070;-53
2021/08/14 03:00:29;;;;;;;15.18;2.00;;;25.90;95.00;;;;;;5084587;28;20020;-50
2021/08/14 03:02:56;;;;;;;21.23;2.85;;;25.90;95.00;;;;;;5084580;28;20055;-44
2021/08/14 03:05:22;;;;;;;26.98;3.38;;;25.90;95.00;;;;;;5083313;28;20023;-45
2021/08/14 03:07:49;;;;;;;14.02;2.30;;;25.90;95.00;;;;;;5084371;28;20028;-51
2021/08/14 03:10:16;;;;;;;14.02;2.50;;;25.90;94.90;;;;;;5084327;28;20048;-49
2021/08/14 03:12:42;;;;;;;6.85;1.52;;;25.90;94.90;;;;;;5084386;28;20029;-51
2021/08/14 03:15:10;;;;;;;12.95;1.80;;;25.90;94.90;;;;;;5084390;28;20325;-53
2021/08/14 03:17:37;;;;;;;9.90;1.63;;;25.90;94.90;;;;;;5084173;28;20052;-50
2021/08/14 03:20:05;;;;;;;12.80;1.35;;;25.90;94.90;;;;;;5084203;28;20028;-52
2021/08/14 03:22:32;;;;;;;7.10;1.55;;;25.90;94.90;;;;;;5083254;28;20021;-55
2021/08/14 03:24:59;;;;;;;8.27;1.40;;;25.90;95.00;;;;;;5084070;28;20265;-49
2021/08/14 03:27:25;;;;;;;8.90;1.55;;;25.90;95.00;;;;;;5082787;28;20048;-54
2021/08/14 03:29:52;;;;;;;4.72;1.50;;;25.90;95.00;;;;;;5083147;28;20244;-50
2021/08/14 03:32:19;;;;;;;5.85;1.58;;;25.80;95.00;;;;;;5083931;28;20248;-50
2021/08/14 03:34:46;;;;;;;7.05;1.83;;;25.80;95.10;;;;;;5084057;28;20089;-51
2021/08/14 03:37:13;;;;;;;5.93;1.90;;;25.80;95.10;;;;;;5084093;28;20017;-49
2021/08/14 03:39:39;;;;;;;11.48;2.08;;;25.80;95.10;;;;;;5082776;28;20028;-52
2021/08/14 03:42:06;;;;;;;5.78;3.15;;;25.80;95.10;;;;;;5083901;28;20021;-50
2021/08/14 03:44:33;;;;;;;6.32;3.45;;;25.80;95.10;;;;;;5084321;28;20017;-46
2021/08/14 03:46:59;;;;;;;9.68;3.55;;;25.80;95.20;;;;;;5083064;28;20031;-48
2021/08/14 03:49:26;;;;;;;9.05;3.10;;;25.80;95.20;;;;;;5082992;28;20024;-52
2021/08/14 03:51:53;;;;;;;6.00;2.75;;;25.80;95.10;;;;;;5083820;28;20082;-54
2021/08/14 03:54:19;;;;;;;10.68;2.38;;;25.70;95.00;;;;;;5083761;28;20012;-52
2021/08/14 03:56:46;;;;;;;8.05;2.10;;;25.70;95.00;;;;;;5083598;28;20216;-55
2021/08/14 03:59:13;;;;;;;5.70;1.88;;;25.70;95.00;;;;;;5084227;28;20020;-50
2021/08/14 04:01:39;;;;;;;10.38;2.40;;;25.70;95.00;;;;;;5083630;28;20031;-49
2021/08/14 04:04:06;;;;;;;9.27;1.80;;;25.70;95.00;;;;;;5083942;28;20193;-51
2021/08/14 04:06:32;;;;;;;11.02;2.00;;;25.70;95.10;;;;;;5083909;28;20024;-44
2021/08/14 04:08:59;;;;;;;14.30;2.20;;;25.70;95.10;;;;;;5083728;28;20206;-46
2021/08/14 04:11:26;;;;;;;7.38;1.90;;;25.70;95.10;;;;;;5083367;28;20081;-53
2021/08/14 04:13:52;;;;;;;11.25;1.98;;;25.70;95.20;;;;;;5084042;28;20027;-50
2021/08/14 04:16:19;;;;;;;10.50;1.98;;;25.70;95.20;;;;;;5083508;28;20024;-51
2021/08/14 04:18:45;;;;;;;11.13;2.17;;;25.70;95.30;;;;;;5083783;28;20095;-49
2021/08/14 04:21:12;;;;;;;9.02;1.80;;;25.70;95.20;;;;;;5083618;28;20084;-53
2021/08/14 04:23:39;;;;;;;8.52;2.15;;;25.70;95.20;;;;;;5083848;28;20066;-46
2021/08/14 04:26:05;;;;;;;8.50;2.20;;;25.70;95.30;;;;;;5083178;28;20017;-48
2021/08/14 04:28:32;;;;;;;10.45;2.38;;;25.70;95.20;;;;;;5083889;28;20055;-51
2021/08/14 04:30:59;;;;;;;7.00;2.47;;;25.70;95.20;;;;;;5083552;28;20021;-53
2021/08/14 04:33:25;;;;;;;11.15;4.80;;;25.70;95.20;;;;;;5083580;28;20224;-53
2021/08/14 04:35:52;;;;;;;9.07;4.60;;;25.70;95.30;;;;;;5083812;28;20270;-49
2021/08/14 04:38:18;;;;;;;13.63;6.10;;;25.70;95.20;;;;;;5083945;28;20040;-52
2021/08/14 04:40:45;;;;;;;14.15;6.22;;;25.60;95.40;;;;;;5083062;28;20030;-54
2021/08/14 04:43:12;;;;;;;15.55;6.55;;;25.60;95.30;;;;;;5092489;28;20093;-52
2021/08/14 04:45:39;;;;;;;17.48;6.85;;;25.50;95.40;;;;;;5096137;28;20056;-54
2021/08/14 04:48:05;;;;;;;14.63;5.95;;;25.50;95.60;;;;;;5103664;28;20024;-51
2021/08/14 04:50:32;;;;;;;11.75;5.00;;;25.50;95.70;;;;;;5103626;28;20020;-51
2021/08/14 04:52:59;;;;;;;12.15;4.97;;;25.40;95.70;;;;;;5103663;28;20020;-55
2021/08/14 04:55:25;;;;;;;9.70;3.83;;;25.40;95.80;;;;;;5103308;28;20039;-57
2021/08/14 04:57:53;;;;;;;8.82;3.50;;;25.40;95.80;;;;;;5103623;28;20186;-56
2021/08/14 05:00:20;;;;;;;15.40;3.42;;;25.30;95.90;;;;;;5085744;28;20028;-50
2021/08/14 05:02:46;;;;;;;6.88;2.50;;;25.30;96.00;;;;;;5086893;28;20235;-45
2021/08/14 05:05:13;;;;;;;10.55;2.00;;;25.30;96.10;;;;;;5086779;28;20336;-55
2021/08/14 05:07:40;;;;;;;6.18;1.80;;;25.30;96.00;;;;;;5086632;28;20024;-52
2021/08/14 05:10:07;;;;;;;9.40;1.80;;;25.30;95.90;;;;;;5086577;28;20047;-45
2021/08/14 05:12:35;;;;;;;8.65;1.40;;;25.20;95.80;;;;;;5086587;28;20041;-47
2021/08/14 05:15:02;;;;;;;8.73;1.50;;;25.20;95.90;;;;;;5086711;28;20012;-55
2021/08/14 05:17:28;;;;;;;11.82;1.88;;;25.20;95.90;;;;;;5086635;28;20023;-48
2021/08/14 05:19:55;;;;;;;9.27;1.42;;;25.20;95.90;;;;;;5086494;28;20115;-54
2021/08/14 05:22:22;;;;;;;4.90;1.48;;;25.10;95.80;;;;;;5085307;28;20016;-51
2021/08/14 05:24:48;;;;;;;8.52;1.35;;;25.10;96.00;;;;;;5086439;28;20035;-54
2021/08/14 05:27:15;;;;;;;6.35;1.83;;;25.10;96.00;;;;;;5085845;28;20111;-55
2021/08/14 05:29:43;;;;;;;9.82;1.60;;;25.10;96.10;;;;;;5086297;28;20070;-55
2021/08/14 05:32:09;;;;;;;6.15;1.20;;;25.10;96.00;;;;;;5086273;28;20054;-57
2021/08/14 05:34:36;;;;;;;11.35;1.90;;;25.10;95.90;;;;;;5086542;28;20087;-52
2021/08/14 05:37:02;;;;;;;12.43;1.63;;;25.10;96.00;;;;;;5086214;28;20024;-53
2021/08/14 05:39:29;;;;;;;12.18;1.38;;;25.10;95.80;;;;;;5086613;28;20036;-52
2021/08/14 05:41:56;;;;;;;5.28;1.48;;;25.10;96.20;;;;;;5085852;28;20020;-54
2021/08/14 05:44:23;;;;;;;9.10;1.95;;;25.10;96.20;;;;;;5086617;28;20047;-51
2021/08/14 05:46:49;;;;;;;10.18;1.70;;;25.10;96.30;;;;;;5085035;28;20020;-54
2021/08/14 05:49:16;;;;;;;9.20;1.90;;;25.10;96.30;;;;;;5088653;28;20042;-57
2021/08/14 05:51:43;;;;;;;6.57;2.17;;;25.00;96.20;;;;;;5091240;28;20023;-55
2021/08/14 05:54:09;;;;;;;11.73;2.88;;;25.00;96.20;;;;;;5086328;28;20024;-54
2021/08/14 05:56:36;;;;;;;12.65;3.90;;;25.00;96.30;;;;;;5086066;28;20320;-53
2021/08/14 05:59:03;;;;;;;13.93;7.00;;;25.10;96.20;;;;;;5086220;28;20095;-53
2021/08/14 06:01:29;;;;;;;12.93;7.60;;;25.10;96.20;;;;;;5085659;28;20296;-52
2021/08/14 06:03:56;;;;;;;15.52;7.45;;;25.10;96.10;;;;;;5084908;28;20095;-47
2021/08/14 06:06:23;;;;;;;12.63;6.18;;;25.20;96.10;;;;;;5086677;28;20062;-49
2021/08/14 06:08:49;;;;;;;13.10;5.45;;;25.20;96.10;;;;;;5086737;28;20274;-52
2021/08/14 06:11:16;;;;;;;14.05;5.13;;;25.20;96.00;;;;;;5085503;28;20047;-58
2021/08/14 06:13:42;;;;;;;15.75;6.68;;;25.20;95.90;;;;;;5084330;28;20024;-49
2021/08/14 06:16:12;;;;;;;12.95;6.97;;;25.20;95.90;;;;;;5084258;28;20084;-51
2021/08/14 06:18:41;;;;;;;16.60;7.32;;;25.20;96.00;;;;;;5084365;28;20040;-52
2021/08/14 06:21:09;;;;;;;10.05;5.50;;;25.30;96.00;;;;;;5084055;28;20083;-49
2021/08/14 06:23:36;;;;;;;13.52;4.45;;;25.30;96.00;;;;;;5084328;28;20020;-54
2021/08/14 06:26:03;;;;;;;12.57;4.40;;;25.30;96.00;;;;;;5083914;28;20025;-52
2021/08/14 06:28:29;;;;;;;8.88;3.53;;;25.30;95.90;;;;;;5085345;28;20049;-50
2021/08/14 06:30:56;;;;;;;13.35;3.63;;;25.30;95.80;;;;;;5085704;28;20015;-47
2021/08/14 06:33:23;;;;;;;10.02;2.72;;;25.30;95.90;;;;;;5085441;28;20020;-50
2021/08/14 06:35:49;;;;;;;13.25;2.63;;;25.30;95.90;;;;;;5085709;28;20053;-49
2021/08/14 06:38:16;;;;;;;12.80;2.80;;;25.30;95.80;;;;;;5085743;28;20028;-52
2021/08/14 06:40:42;;;;;;;10.90;2.63;;;25.30;95.90;;;;;;5085369;28;20022;-47
2021/08/14 06:43:09;;;;;;;14.07;2.85;;;25.30;95.90;;;;;;5085634;28;20032;-50
2021/08/14 06:45:36;;;;;;;12.85;3.22;;;25.30;95.90;;;;;;5085385;28;20020;-50
2021/08/14 06:48:02;;;;;;;10.68;2.58;;;25.30;95.90;;;;;;5085317;28;20356;-47
2021/08/14 06:50:29;;;;;;;8.32;2.50;;;25.30;95.90;;;;;;5085215;28;20035;-58
2021/08/14 06:52:56;;;;;;;11.10;2.60;;;25.30;95.90;;;;;;5085495;28;20169;-50
2021/08/14 06:55:22;;;;;;;15.65;2.70;;;25.30;95.90;;;;;;5085155;28;20017;-45
2021/08/14 06:57:49;;;;;;;9.25;3.00;;;25.30;96.00;;;;;;5085166;28;20107;-49
2021/08/14 07:00:16;;;;;;;12.63;2.78;;;25.30;96.00;;;;;;5085177;28;20080;-55
2021/08/14 07:02:43;;;;;;;17.23;2.70;;;25.30;96.00;;;;;;5085129;28;20033;-51
2021/08/14 07:05:10;;;;;;;7.95;2.00;;;25.30;96.00;;;;;;5084925;28;20028;-49
2021/08/14 07:07:37;;;;;;;8.07;1.70;;;25.30;96.00;;;;;;5085027;28;20309;-49
2021/08/14 07:10:05;;;;;;;13.25;2.20;;;25.30;96.00;;;;;;5084885;28;20273;-56
2021/08/14 07:12:32;;;;;;;8.73;2.03;;;25.30;96.00;;;;;;5084846;28;20039;-54
2021/08/14 07:14:59;;;;;;;16.27;2.00;;;25.30;96.00;;;;;;5084858;28;20018;-53
2021/08/14 07:17:27;;;;;;;12.02;1.48;;;25.20;95.90;;;;;;5084787;28;20024;-56
2021/08/14 07:19:53;;;;;;;12.10;1.95;;;25.20;95.80;;;;;;5084727;28;20074;-52
2021/08/14 07:22:20;;;;;;;10.65;1.60;;;25.20;95.80;;;;;;5083688;28;20021;-50
2021/08/14 07:24:46;;;;;;;10.38;1.35;;;25.20;95.80;;;;;;5084843;28;20024;-50
2021/08/14 07:27:13;;;;;;;9.73;1.58;;;25.20;95.80;;;;;;5084644;28;20379;-53
2021/08/14 07:29:40;;;;;;;7.43;1.40;;;25.20;95.80;;;;;;5084797;28;20028;-51
2021/08/14 07:32:07;;;;;;;12.90;1.80;;;25.20;95.80;;;;;;5084601;28;20040;-53
2021/08/14 07:34:33;;;;;;;9.98;2.00;;;25.20;95.80;;;;;;5084704;28;20024;-53
2021/08/14 07:37:00;;;;;;;10.02;2.83;;;25.20;95.70;;;;;;5084213;28;20117;-52
2021/08/14 07:39:26;;;;;;;11.90;2.60;;;25.10;95.60;;;;;;5084563;28;20039;-52
2021/08/14 07:41:53;;;;;;;11.32;3.00;;;25.10;95.60;;;;;;5084166;28;20070;-56
2021/08/14 07:44:20;;;;;;;9.73;2.65;;;25.10;95.60;;;;;;5084482;28;20031;-51
2021/08/14 07:46:46;;;;;;;10.98;2.60;;;25.10;95.60;;;;;;5083838;28;20027;-53
2021/08/14 07:49:13;;;;;;;11.43;2.55;;;25.10;95.60;;;;;;5084172;28;20020;-53
2021/08/14 07:51:39;;;;;;;11.70;1.88;;;25.10;95.70;;;;;;5083880;28;20027;-47
2021/08/14 07:54:06;;;;;;;9.02;1.92;;;25.10;95.60;;;;;;5084229;28;20305;-49
2021/08/14 07:56:33;;;;;;;8.70;1.77;;;25.10;95.60;;;;;;5083700;28;20040;-50
2021/08/14 07:58:59;;;;;;;7.70;1.83;;;25.10;95.60;;;;;;5084225;28;20029;-51
2021/08/14 08:01:26;;;;;;;11.23;1.65;;;25.10;95.60;;;;;;5083859;28;20366;-49
2021/08/14 08:03:52;;;;;;;8.65;1.52;;;25.10;95.60;;;;;;5083980;28;20320;-50
2021/08/14 08:06:19;;;;;;;8.75;1.48;;;25.10;95.60;;;;;;5083786;28;20028;-52
2021/08/14 08:08:46;;;;;;;8.90;1.70;;;25.00;95.60;;;;;;5083987;28;20320;-51
2021/08/14 08:11:12;;;;;;;9.55;1.42;;;25.00;95.70;;;;;;5083590;28;20016;-50
2021/08/14 08:13:39;;;;;;;8.48;1.42;;;25.00;95.70;;;;;;5083993;28;20021;-49
2021/08/14 08:16:05;;;;;;;11.13;1.30;;;25.00;95.70;;;;;;5083585;28;20024;-51
2021/08/14 08:18:32;;;;;;;6.88;1.40;;;24.90;95.60;;;;;;5083772;28;20036;-46
2021/08/14 08:20:59;;;;;;;9.82;1.38;;;24.90;95.70;;;;;;5083646;28;20054;-51
2021/08/14 08:23:25;;;;;;;7.72;1.23;;;24.90;95.60;;;;;;5083801;28;20024;-59
2021/08/14 08:25:52;;;;;;;13.18;1.73;;;25.00;95.60;;;;;;5083835;28;20239;-55
2021/08/14 08:28:23;;;;;;;6.35;1.10;;;25.00;95.60;;;;;;5082195;28;20048;-50
2021/08/14 08:30:50;;;;;;;11.50;1.50;;;24.90;95.60;;;;;;5083431;28;20020;-55
2021/08/14 08:33:17;;;;;;;13.02;1.50;;;24.90;95.60;;;;;;5085552;28;20016;-54
2021/08/14 08:35:44;;;;;;;10.35;1.30;;;24.90;95.50;;;;;;5087657;28;20021;-50
2021/08/14 08:38:10;;;;;;;6.00;1.52;;;24.90;95.50;;;;;;5087629;28;20036;-50
2021/08/14 08:40:40;;;;;;;7.78;1.50;;;24.90;95.50;;;;;;5087230;28;20209;-55
2021/08/14 08:43:07;;;;;;;11.75;1.35;;;24.90;95.50;;;;;;5087324;28;20135;-53
2021/08/14 08:45:34;;;;;;;9.02;1.33;;;24.90;95.40;;;;;;5087650;28;20031;-51
2021/08/14 08:48:04;;;;;;;10.38;1.02;;;24.80;95.40;;;;;;5087791;28;20110;-52
2021/08/14 08:50:31;;;;;;;9.05;1.20;;;24.80;95.40;;;;;;5086959;28;20078;-53
2021/08/14 08:52:58;;;;;;;3.83;0.82;;;24.80;95.30;;;;;;5085943;28;20029;-55
2021/08/14 08:55:25;;;;;;;8.95;1.40;;;24.80;95.40;;;;;;5086853;28;20044;-53
2021/08/14 08:57:52;;;;;;;12.80;1.17;;;24.80;95.40;;;;;;5087040;28;20025;-48
2021/08/14 09:00:18;;;;;;;7.45;1.40;;;24.80;95.30;;;;;;5086889;28;20051;-52
2021/08/14 09:02:47;;;;;;;11.25;1.30;;;24.80;95.30;;;;;;5086829;28;20032;-50
2021/08/14 09:05:19;;;;;;;7.57;1.45;;;24.80;95.30;;;;;;5086769;28;20075;-53
2021/08/14 09:07:50;;;;;;;4.47;0.90;;;24.80;95.30;;;;;;5086742;28;20035;-53
2021/08/14 09:10:19;;;;;;;4.72;1.30;;;24.80;95.30;;;;;;5086602;28;20062;-58
2021/08/14 09:12:46;;;;;;;10.45;1.33;;;24.80;95.30;;;;;;5086708;28;20309;-51
2021/08/14 09:15:27;;;;;;;8.13;1.25;;;24.80;95.30;;;;;;5086667;28;20016;-51
2021/08/14 09:18:04;;;;;;;8.60;1.15;;;24.80;95.30;;;;;;5086920;28;20028;-50
2021/08/14 09:20:33;;;;;;;11.18;1.23;;;24.80;95.30;;;;;;5086615;28;20293;-53
2021/08/14 09:23:11;;;;;;;10.25;1.48;;;24.80;95.30;;;;;;5086493;28;20029;-55
2021/08/14 09:25:55;;;;;;;7.25;1.00;;;24.80;95.30;;;;;;5086386;28;20051;-51
2021/08/14 09:28:34;;;;;;;5.72;1.00;;;24.70;95.40;;;;;;5086260;28;20119;-55
2021/08/14 09:31:05;;;;;;;12.68;1.48;;;24.70;95.30;;;;;;5086373;28;20209;-52
2021/08/14 09:33:34;;;;;;;8.07;1.10;;;24.70;95.30;;;;;;5086078;28;20056;-51
2021/08/14 09:36:07;;;;;;;8.95;1.30;;;24.70;95.40;;;;;;5086276;28;20013;-51
2021/08/14 09:38:45;;;;;;;;;;;24.70;95.40;;;;;;5086754;28;20233;-53
2021/08/14 09:41:16;;;;;;;11.65;1.48;;;24.70;95.40;;;;;;5086417;28;20094;-51
2021/08/14 09:43:44;;;;;;;13.70;1.83;;;24.70;95.40;;;;;;5086182;28;20032;-53
2021/08/14 09:46:12;;;;;;;12.80;1.60;;;24.70;95.40;;;;;;5085289;28;20029;-51
2021/08/14 09:48:40;;;;;;;11.02;1.52;;;24.70;95.40;;;;;;5086354;28;20025;-52
2021/08/14 09:51:29;;;;;;;10.95;1.65;;;24.60;95.40;;;;;;5085960;28;20021;-55
2021/08/14 09:53:56;;;;;;;6.80;1.25;;;24.60;95.40;;;;;;5086284;28;20025;-59
2021/08/14 09:56:26;;;;;;;8.43;1.48;;;24.60;95.40;;;;;;5085983;28;20025;-55
2021/08/14 09:58:54;;;;;;;11.18;1.27;;;24.60;95.50;;;;;;5086275;28;20040;-53
2021/08/14 10:01:22;;;;;;;10.27;1.40;;;24.60;95.50;;;;;;5085803;28;20020;-52
2021/08/14 10:03:49;;;;;;;10.38;1.20;;;24.60;95.50;;;;;;5085890;28;20070;-53
2021/08/14 10:06:16;;;;;;;11.57;1.00;;;24.60;95.50;;;;;;5085668;28;20016;-54
2021/08/14 10:08:42;;;;;;;9.13;1.58;;;24.60;95.60;;;;;;5085845;28;20177;-51
2021/08/14 10:11:13;;;;;;;10.52;1.52;;;24.60;95.60;;;;;;5085521;28;20058;-57
2021/08/14 10:13:41;;;;;;;13.73;1.50;;;24.60;95.70;;;;;;5085767;28;20066;-58
2021/08/14 10:16:12;;;;;;;10.50;1.40;;;24.60;95.70;;;;;;5085493;28;20066;-57
2021/08/14 10:18:40;;;;;;;6.35;1.60;;;24.60;95.70;;;;;;5085236;28;20032;-52
2021/08/14 10:21:07;;;;;;;6.53;2.00;;;24.60;95.80;;;;;;5085330;28;20020;-51
2021/08/14 10:23:35;;;;;;;8.32;2.25;;;24.60;95.80;;;;;;5085579;28;20058;-51
2021/08/14 10:26:03;;;;;;;11.40;2.45;;;24.60;95.90;;;;;;5085114;28;20020;-55
2021/08/14 10:28:42;;;;;;;8.98;2.15;;;24.60;95.90;;;;;;5085327;28;20040;-50
2021/08/14 10:31:09;;;;;;;13.32;2.83;;;24.60;95.90;;;;;;5085060;28;20051;-53
2021/08/14 10:33:39;;;;;;;13.45;3.78;;;24.60;95.90;;;;;;5085366;28;20055;-52
2021/08/14 10:36:17;;;;;;;7.88;4.50;;;24.60;95.90;;;;;;5085001;28;20232;-50
2021/08/14 10:38:46;;;;;;;16.83;7.70;;;24.60;96.00;;;;;;5085181;28;20317;-51
2021/08/14 10:41:14;;;;;;;9.52;6.78;;;24.60;96.00;;;;;;5084870;28;20220;-54
2021/08/14 10:43:57;;;;;;;16.58;8.18;;;24.60;96.00;;;;;;5085104;28;20029;-56
2021/08/14 10:46:38;;;;;;;18.33;9.40;;;24.60;96.00;;;;;;5084729;28;20031;-58
2021/08/14 10:49:07;;;;;;;13.77;8.57;;;24.60;96.10;;;;;;5084966;28;20087;-57
2021/08/14 10:51:50;;;;;;;15.05;8.98;;;24.60;96.00;;;;;;5084733;28;20028;-52
2021/08/14 10:54:33;;;;;;;15.25;7.65;;;24.60;96.00;;;;;;5084973;28;20035;-48
2021/08/14 10:56:59;;;;;;;;;;;24.60;95.90;;;;;;5084790;28;20024;-51
2021/08/14 10:59:38;;;;;;;17.35;7.63;;;24.60;95.90;;;;;;5084999;28;19915;-55
2021/08/14 11:02:11;;;;;;;15.40;7.80;;;24.60;95.90;;;;;;5084512;28;20067;-56
2021/08/14 11:04:39;;;;;;;13.15;7.10;;;24.60;96.00;;;;;;5084383;28;20034;-55
2021/08/14 11:07:32;;;;;;;11.50;5.97;;;24.60;96.00;;;;;;5084251;28;20248;-55
2021/08/14 11:10:02;;;;;;;14.55;5.25;;;24.60;96.10;;;;;;5081967;28;20304;-58
2021/08/14 11:12:32;;;;;;;13.50;5.20;;;24.60;96.00;;;;;;5084058;28;20013;-46
2021/08/14 11:15:29;;;;;;;13.98;4.30;;;24.60;96.00;;;;;;5084444;28;20020;-51
2021/08/14 11:18:00;;;;;;;8.68;3.63;;;24.60;96.10;;;;;;5084234;28;20020;-53
2021/08/14 11:20:30;;;;;;;11.45;3.72;;;24.60;96.00;;;;;;5084276;28;20284;-53
2021/08/14 11:23:04;;;;;;;13.63;3.38;;;24.60;96.10;;;;;;5084089;28;20040;-53
2021/08/14 11:25:39;;;;;;;9.18;3.33;;;24.60;96.10;;;;;;5083981;28;20028;-56
2021/08/14 11:28:09;;;;;;;6.90;2.90;;;24.60;96.10;;;;;;5083704;28;20221;-55
2021/08/14 11:30:46;;;;;;;10.27;3.00;;;24.60;96.10;;;;;;5083982;28;20016;-59
2021/08/14 11:33:15;;;;;;;9.55;2.42;;;24.60;96.10;;;;;;5084174;28;20024;-54
2021/08/14 11:35:42;;;;;;;12.57;2.80;;;24.60;96.10;;;;;;5083971;28;20380;-58
2021/08/14 11:38:11;;;;;;;8.63;2.50;;;24.60;96.10;;;;;;5084041;28;20138;-56
2021/08/14 11:40:43;;;;;;;9.18;2.30;;;24.60;96.10;;;;;;5083847;28;20044;-53
2021/08/14 11:43:13;;;;;;;7.88;2.25;;;24.70;96.10;;;;;;5084184;28;20032;-53
2021/08/14 11:45:42;;;;;;;10.60;2.83;;;24.70;96.10;;;;;;5083707;28;20025;-60
2021/08/14 11:48:17;;;;;;;10.07;3.08;;;24.70;96.20;;;;;;5083665;28;20032;-55
2021/08/14 11:50:45;;;;;;;6.57;2.72;;;24.70;96.20;;;;;;5083885;28;20016;-58
2021/08/14 11:53:26;;;;;;;12.45;3.13;;;24.70;96.10;;;;;;5084011;28;20020;-52
2021/08/14 11:56:06;;;;;;;9.93;2.47;;;24.70;96.10;;;;;;5083892;28;20008;-51
2021/08/14 11:58:33;;;;;;;7.85;2.20;;;24.70;96.10;;;;;;5083956;28;20028;-53
2021/08/14 12:01:00;;;;;;;11.40;2.50;;;24.70;96.10;;;;;;5083959;28;20038;-55
2021/08/14 12:03:27;;;;;;;9.43;2.60;;;24.80;96.10;;;;;;5083965;28;20032;-52
2021/08/14 12:06:08;;;;;;;8.88;2.83;;;24.80;96.20;;;;;;5083653;28;20017;-52
2021/08/14 12:08:41;;;;;;;9.77;2.97;;;24.80;96.20;;;;;;5086229;28;20065;-51
2021/08/14 12:11:14;;;;;;;7.95;2.58;;;24.80;96.20;;;;;;5087848;28;20020;-47
2021/08/14 12:13:41;;;;;;;9.23;2.42;;;24.80;96.30;;;;;;5088136;28;20024;-51
2021/08/14 12:16:21;;;;;;;10.73;2.75;;;24.80;96.30;;;;;;5087841;28;20052;-53
2021/08/14 12:18:50;;;;;;;8.23;3.03;;;24.80;96.20;;;;;;5087789;28;20020;-51
2021/08/14 12:21:19;;;;;;;8.82;2.85;;;24.80;96.30;;;;;;5087523;28;20028;-53
2021/08/14 12:24:03;;;;;;;6.38;2.70;;;24.80;96.30;;;;;;5087686;28;20200;-53
2021/08/14 12:26:30;;;;;;;9.63;2.90;;;24.80;96.40;;;;;;5087360;28;20048;-52
2021/08/14 12:29:05;;;;;;;12.23;2.70;;;24.80;96.60;;;;;;5087569;28;20032;-53
2021/08/14 12:31:50;;;;;;;12.25;2.88;;;24.90;96.50;;;;;;5087263;28;20028;-51
2021/08/14 12:34:27;;;;;;;10.60;2.92;;;24.80;96.50;;;;;;5087635;28;20070;-52
2021/08/14 12:37:06;;;;;;;5.63;2.63;;;24.90;96.50;;;;;;5086649;28;20016;-52
2021/08/14 12:39:56;;;;;;;10.48;2.70;;;24.90;96.70;;;;;;5087302;28;20020;-58
2021/08/14 12:42:30;;;;;;;9.93;2.28;;;24.90;96.80;;;;;;5085461;28;20020;-49
2021/08/14 12:44:59;;;;;;;7.47;2.80;;;24.90;96.70;;;;;;5086088;28;20301;-55
2021/08/14 12:47:33;;;;;;;9.90;2.70;;;24.90;96.80;;;;;;5086867;28;20066;-51
2021/08/14 12:50:32;;;;;;;8.32;2.78;;;24.90;96.80;;;;;;5087237;28;20026;-54